createdAt,value
2022-10-18T00:00:17.660Z,0.0
2022-10-18T00:05:17.485Z,0.0
2022-10-18T00:10:17.424Z,0.0
2022-10-18T00:15:17.538Z,0.0
2022-10-18T00:20:17.437Z,0.0
2022-10-18T00:25:17.410Z,0.0
2022-10-18T00:30:17.543Z,0.0
2022-10-18T00:35:17.769Z,0.0
2022-10-18T00:40:17.736Z,0.0
2022-10-18T00:45:17.585Z,0.0
2022-10-18T00:50:17.496Z,0.0
2022-10-18T00:55:17.505Z,0.0
2022-10-18T01:00:17.720Z,0.0
2022-10-18T01:05:17.676Z,0.0
2022-10-18T01:10:17.637Z,0.0
2022-10-18T01:15:17.597Z,0.0
2022-10-18T01:20:17.639Z,0.0
2022-10-18T01:25:17.568Z,0.0
2022-10-18T01:30:17.766Z,0.0
2022-10-18T01:35:17.747Z,0.0
2022-10-18T01:40:17.616Z,0.0
2022-10-18T01:45:18.052Z,0.0
2022-10-18T01:50:17.676Z,0.0
2022-10-18T01:55:17.628Z,0.0
2022-10-18T02:00:17.797Z,0.0
2022-10-18T02:05:18.015Z,0.0
2022-10-18T02:10:17.755Z,0.0
2022-10-18T02:15:18.103Z,0.0
2022-10-18T02:20:17.889Z,0.0
2022-10-18T02:25:17.762Z,0.0
2022-10-18T02:30:17.896Z,0.0
2022-10-18T02:35:17.684Z,0.0
2022-10-18T02:40:17.789Z,0.0
2022-10-18T02:45:18.129Z,0.0
2022-10-18T02:50:17.756Z,0.0
2022-10-18T02:55:18.134Z,0.0
2022-10-18T03:00:17.988Z,0.0
2022-10-18T03:05:17.885Z,0.0
2022-10-18T03:10:17.847Z,0.0
2022-10-18T03:15:17.993Z,0.0
2022-10-18T03:20:17.882Z,0.0
2022-10-18T03:25:18.118Z,0.0
2022-10-18T03:30:18.380Z,0.0
2022-10-18T03:35:17.910Z,0.0
2022-10-18T03:40:17.953Z,0.0
2022-10-18T03:45:18.109Z,0.0
2022-10-18T03:50:17.942Z,0.0
2022-10-18T03:55:18.127Z,0.0
2022-10-18T04:00:17.032Z,0.0
2022-10-18T04:05:19.160Z,0.0
2022-10-18T04:10:17.018Z,0.0
2022-10-18T04:15:17.039Z,0.0
2022-10-18T04:20:17.278Z,0.0
2022-10-18T04:25:17.136Z,0.0
2022-10-18T04:30:17.100Z,0.0
2022-10-18T04:35:16.988Z,0.0
2022-10-18T04:40:17.379Z,0.0
2022-10-18T04:45:17.315Z,0.0
2022-10-18T04:50:17.185Z,0.0
2022-10-18T04:55:17.072Z,0.0
2022-10-18T05:00:17.367Z,0.0
2022-10-18T05:05:17.002Z,0.0
2022-10-18T05:10:17.052Z,0.0
2022-10-18T05:15:17.591Z,0.0
2022-10-18T05:20:17.121Z,0.0
2022-10-18T05:25:17.064Z,0.0
2022-10-18T05:30:17.114Z,0.0
2022-10-18T05:35:17.161Z,0.0
2022-10-18T05:40:17.200Z,0.0
2022-10-18T05:45:17.398Z,0.0
2022-10-18T05:50:17.360Z,0.0
2022-10-18T05:55:17.091Z,0.0
2022-10-18T06:00:17.371Z,0.0
2022-10-18T06:05:17.152Z,0.0
2022-10-18T06:10:17.486Z,0.0
2022-10-18T06:15:17.208Z,0.0
2022-10-18T06:20:19.109Z,0.0
2022-10-18T06:25:17.197Z,0.0
2022-10-18T06:30:17.395Z,0.0
2022-10-18T06:35:17.258Z,0.0
2022-10-18T06:40:17.281Z,0.0
2022-10-18T06:45:17.330Z,0.0
2022-10-18T06:50:17.281Z,0.0
2022-10-18T06:55:17.782Z,0.0
2022-10-18T07:00:18.339Z,0.0
2022-10-18T07:05:17.447Z,0.0
2022-10-18T07:10:17.376Z,0.0
2022-10-18T07:15:17.611Z,0.0
2022-10-18T07:20:17.587Z,0.0
2022-10-18T07:25:17.353Z,0.0
2022-10-18T07:30:18.095Z,0.0
2022-10-18T07:35:17.338Z,0.0
2022-10-18T07:40:19.557Z,0.0
2022-10-18T07:45:18.154Z,0.0
2022-10-18T07:50:17.512Z,0.0
2022-10-18T07:55:17.398Z,0.0
2022-10-18T08:00:17.638Z,0.0
2022-10-18T08:05:17.589Z,0.0
2022-10-18T08:10:17.492Z,0.0
2022-10-18T08:15:17.486Z,0.0
2022-10-18T08:20:29.765Z,0.0
2022-10-18T08:25:17.536Z,0.0
2022-10-18T08:30:17.861Z,0.0
2022-10-18T08:35:17.548Z,0.0
2022-10-18T08:40:17.764Z,0.0
2022-10-18T08:45:37.366Z,0.0
2022-10-18T08:50:17.602Z,0.0
2022-10-18T08:55:17.597Z,0.0
2022-10-18T09:00:17.740Z,0.0
2022-10-18T09:05:17.643Z,0.0
2022-10-18T09:10:17.759Z,0.0
2022-10-18T09:15:18.293Z,0.0
2022-10-18T09:20:17.661Z,0.0
2022-10-18T09:25:17.509Z,0.0
2022-10-18T09:30:17.848Z,0.0
2022-10-18T09:35:17.551Z,0.0
2022-10-18T09:40:19.065Z,0.0
2022-10-18T09:45:17.774Z,0.0
2022-10-18T09:50:17.827Z,0.0
2022-10-18T09:55:17.644Z,0.0
2022-10-18T10:00:17.831Z,0.0
2022-10-18T10:05:17.756Z,0.0
2022-10-18T10:10:17.779Z,0.0
2022-10-18T10:15:17.668Z,0.0
2022-10-18T10:20:17.802Z,0.0
2022-10-18T10:25:18.224Z,0.0
2022-10-18T10:30:17.919Z,0.0
2022-10-18T10:35:28.563Z,0.0
2022-10-18T10:40:19.818Z,0.0
2022-10-18T10:45:18.461Z,0.0
2022-10-18T10:50:17.805Z,0.0
2022-10-18T10:55:34.002Z,0.0
2022-10-18T11:00:17.976Z,0.0
2022-10-18T11:05:17.725Z,0.0
2022-10-18T11:10:17.846Z,0.0
2022-10-18T11:15:17.885Z,0.0
2022-10-18T11:20:17.829Z,0.0
2022-10-18T11:25:17.865Z,0.0
2022-10-18T11:30:18.076Z,0.0
2022-10-18T11:35:18.280Z,0.0
2022-10-18T11:40:17.890Z,0.0
2022-10-18T11:45:18.269Z,0.0
2022-10-18T11:50:17.965Z,0.0
2022-10-18T11:55:17.874Z,0.0
2022-10-18T12:00:18.419Z,0.0
2022-10-18T12:05:23.707Z,0.0
2022-10-18T12:10:26.190Z,0.0
2022-10-18T12:15:18.000Z,0.0
2022-10-18T12:20:17.994Z,0.0
2022-10-18T12:25:17.982Z,0.0
2022-10-18T12:30:18.228Z,0.0
2022-10-18T12:35:18.099Z,0.0
2022-10-18T12:40:21.153Z,0.0
2022-10-18T12:45:18.267Z,0.0
2022-10-18T12:50:18.295Z,0.0
2022-10-18T12:55:18.076Z,0.0
2022-10-18T13:00:18.218Z,0.0
2022-10-18T13:05:33.635Z,0.0
2022-10-18T13:10:18.049Z,0.0
2022-10-18T13:15:26.370Z,0.0
2022-10-18T13:20:26.099Z,0.0
2022-10-18T13:25:18.122Z,0.0
2022-10-18T13:30:18.167Z,0.0
2022-10-18T13:35:18.088Z,0.0
2022-10-18T13:40:16.192Z,0.2
2022-10-18T13:45:16.223Z,0.6
2022-10-18T13:50:17.992Z,0.9
2022-10-18T13:55:16.646Z,1.0
2022-10-18T14:00:16.485Z,1.1
2022-10-18T14:05:25.234Z,1.3
2022-10-18T14:10:16.272Z,1.3
2022-10-18T14:15:16.325Z,1.3
2022-10-18T14:20:16.339Z,1.5
2022-10-18T14:25:16.751Z,1.8
2022-10-18T14:30:16.488Z,1.9
2022-10-18T14:35:33.209Z,1.8
2022-10-18T14:40:16.321Z,1.9
2022-10-18T14:45:16.334Z,1.4
2022-10-18T14:50:16.433Z,1.2
2022-10-18T14:55:16.299Z,1.1
2022-10-18T15:00:16.946Z,1.1
2022-10-18T15:05:16.466Z,1.2
2022-10-18T15:10:16.442Z,1.1
2022-10-18T15:15:16.437Z,1.1
2022-10-18T15:20:16.486Z,1.4
2022-10-18T15:25:16.829Z,1.6
2022-10-18T15:30:16.505Z,1.8
2022-10-18T15:35:16.508Z,1.5
2022-10-18T15:40:16.577Z,1.9
2022-10-18T15:45:16.624Z,1.9
2022-10-18T15:50:16.560Z,1.7
2022-10-18T15:55:16.442Z,1.6
2022-10-18T16:00:16.453Z,1.6
2022-10-18T16:05:16.637Z,1.5
2022-10-18T16:10:16.863Z,1.8
2022-10-18T16:15:16.862Z,2.2
2022-10-18T16:20:16.471Z,2.8
2022-10-18T16:25:16.862Z,2.3
2022-10-18T16:30:16.700Z,2.9
2022-10-18T16:35:16.546Z,2.8
2022-10-18T16:40:16.532Z,2.0
2022-10-18T16:45:16.788Z,1.9
2022-10-18T16:50:16.601Z,1.9
2022-10-18T16:55:16.555Z,1.9
2022-10-18T17:00:16.723Z,2.4
2022-10-18T17:05:16.640Z,2.9
2022-10-18T17:10:16.698Z,2.8
2022-10-18T17:15:16.610Z,2.8
2022-10-18T17:20:16.747Z,2.6
2022-10-18T17:25:16.836Z,2.7
2022-10-18T17:30:16.740Z,2.7
2022-10-18T17:35:16.676Z,2.6
2022-10-18T17:40:16.741Z,2.6
2022-10-18T17:45:16.802Z,2.5
2022-10-18T17:50:18.078Z,2.4
2022-10-18T17:55:16.810Z,2.4
2022-10-18T18:00:16.883Z,1.7
2022-10-18T18:05:16.818Z,1.9
2022-10-18T18:10:16.752Z,2.0
2022-10-18T18:15:17.121Z,2.0
2022-10-18T18:20:16.761Z,2.0
2022-10-18T18:25:16.854Z,2.0
2022-10-18T18:30:17.090Z,1.9
2022-10-18T18:35:17.048Z,1.6
2022-10-18T18:40:16.816Z,1.3
2022-10-18T18:45:16.783Z,1.7
2022-10-18T18:50:16.894Z,1.4
2022-10-18T18:55:16.760Z,1.2
2022-10-18T19:00:17.092Z,1.1
2022-10-18T19:05:17.161Z,0.8
2022-10-18T19:10:16.943Z,0.9
2022-10-18T19:15:17.048Z,0.8
2022-10-18T19:20:17.360Z,0.9
2022-10-18T19:25:16.888Z,1.0
2022-10-18T19:30:17.373Z,1.0
2022-10-18T19:35:16.947Z,0.8
2022-10-18T19:40:16.897Z,0.8
2022-10-18T19:45:17.592Z,0.7
2022-10-18T19:50:17.027Z,0.7
2022-10-18T19:55:17.090Z,0.7
2022-10-18T20:00:19.436Z,0.6
2022-10-18T20:05:17.052Z,0.1
2022-10-18T20:10:17.193Z,0.0
2022-10-18T20:15:17.372Z,0.0
2022-10-18T20:20:17.029Z,0.0
2022-10-18T20:25:16.975Z,0.0
2022-10-18T20:30:17.165Z,0.0
2022-10-18T20:35:17.081Z,0.0
2022-10-18T20:40:17.174Z,0.0
2022-10-18T20:45:17.529Z,0.0
2022-10-18T20:50:17.134Z,0.0
2022-10-18T20:55:17.808Z,0.0
2022-10-18T21:00:17.233Z,0.0
2022-10-18T21:05:17.160Z,0.0
2022-10-18T21:10:17.132Z,0.0
2022-10-18T21:15:17.160Z,0.0
2022-10-18T21:20:17.273Z,0.0
2022-10-18T21:25:17.258Z,0.0
2022-10-18T21:30:17.333Z,0.0
2022-10-18T21:35:17.164Z,0.0
2022-10-18T21:40:17.561Z,0.0
2022-10-18T21:45:17.321Z,0.0
2022-10-18T21:50:17.248Z,0.0
2022-10-18T21:55:17.350Z,0.0
2022-10-18T22:00:17.588Z,0.0
2022-10-18T22:05:17.392Z,0.0
2022-10-18T22:10:17.439Z,0.0
2022-10-18T22:15:17.428Z,0.0
2022-10-18T22:20:17.427Z,0.0
2022-10-18T22:25:17.344Z,0.0
2022-10-18T22:30:18.770Z,0.0
2022-10-18T22:35:17.371Z,0.0
2022-10-18T22:40:17.356Z,0.0
2022-10-18T22:45:18.181Z,0.0
2022-10-18T22:50:17.603Z,0.0
2022-10-18T22:55:17.310Z,0.0
2022-10-18T23:00:17.521Z,0.0
2022-10-18T23:05:17.597Z,0.0
2022-10-18T23:10:17.431Z,0.0
2022-10-18T23:15:17.864Z,0.0
2022-10-18T23:20:17.651Z,0.0
2022-10-18T23:25:17.375Z,0.0
2022-10-18T23:30:17.986Z,0.0
2022-10-18T23:35:17.515Z,0.0
2022-10-18T23:40:18.459Z,0.0
2022-10-18T23:45:17.490Z,0.0
2022-10-18T23:50:17.504Z,0.0
2022-10-18T23:55:17.565Z,0.0
